sensor_id;sensor_type;location;lat;lon;timestamp;temperature;humidity
78490;DHT22;67776;52.012;4.736;2023-07-02T00:00:30;17.13;79.47
78490;DHT22;67776;52.012;4.736;2023-07-02T00:02:55;17.08;79.43
78490;DHT22;67776;52.012;4.736;2023-07-02T00:05:21;17.02;79.66
78490;DHT22;67776;52.012;4.736;2023-07-02T00:07:46;16.99;80.49
78490;DHT22;67776;52.012;4.736;2023-07-02T00:10:11;16.94;79.82
78490;DHT22;67776;52.012;4.736;2023-07-02T00:12:37;16.76;78.91
78490;DHT22;67776;52.012;4.736;2023-07-02T00:15:03;16.70;80.86
78490;DHT22;67776;52.012;4.736;2023-07-02T00:17:29;16.69;77.97
78490;DHT22;67776;52.012;4.736;2023-07-02T00:19:55;16.70;77.96
78490;DHT22;67776;52.012;4.736;2023-07-02T00:22:20;16.65;78.01
78490;DHT22;67776;52.012;4.736;2023-07-02T00:24:46;16.59;76.45
78490;DHT22;67776;52.012;4.736;2023-07-02T00:27:11;16.58;77.02
78490;DHT22;67776;52.012;4.736;2023-07-02T00:29:37;16.51;76.25
78490;DHT22;67776;52.012;4.736;2023-07-02T00:32:02;16.48;76.08
78490;DHT22;67776;52.012;4.736;2023-07-02T00:34:28;16.44;77.97
78490;DHT22;67776;52.012;4.736;2023-07-02T00:36:53;16.42;76.63
78490;DHT22;67776;52.012;4.736;2023-07-02T00:39:18;16.38;76.51
78490;DHT22;67776;52.012;4.736;2023-07-02T00:41:44;16.32;78.93
78490;DHT22;67776;52.012;4.736;2023-07-02T00:44:13;16.24;78.39
78490;DHT22;67776;52.012;4.736;2023-07-02T00:46:39;16.14;78.69
78490;DHT22;67776;52.012;4.736;2023-07-02T00:49:05;16.20;78.66
78490;DHT22;67776;52.012;4.736;2023-07-02T00:51:30;16.24;76.37
78490;DHT22;67776;52.012;4.736;2023-07-02T00:53:57;16.25;76.87
78490;DHT22;67776;52.012;4.736;2023-07-02T00:56:25;16.22;76.07
78490;DHT22;67776;52.012;4.736;2023-07-02T00:58:53;16.24;77.76
78490;DHT22;67776;52.012;4.736;2023-07-02T01:01:21;16.28;76.44
78490;DHT22;67776;52.012;4.736;2023-07-02T01:04:00;16.22;76.35
78490;DHT22;67776;52.012;4.736;2023-07-02T01:06:30;16.22;76.53
78490;DHT22;67776;52.012;4.736;2023-07-02T01:09:01;16.21;77.23
78490;DHT22;67776;52.012;4.736;2023-07-02T01:11:40;16.21;76.44
78490;DHT22;67776;52.012;4.736;2023-07-02T01:16:41;16.24;74.97
78490;DHT22;67776;52.012;4.736;2023-07-02T01:19:12;16.18;74.94
78490;DHT22;67776;52.012;4.736;2023-07-02T01:21:38;16.20;74.38
78490;DHT22;67776;52.012;4.736;2023-07-02T01:24:04;16.21;74.44
78490;DHT22;67776;52.012;4.736;2023-07-02T01:26:31;16.18;74.61
78490;DHT22;67776;52.012;4.736;2023-07-02T01:29:18;16.13;74.18
78490;DHT22;67776;52.012;4.736;2023-07-02T01:31:44;16.15;72.58
78490;DHT22;67776;52.012;4.736;2023-07-02T01:34:10;16.15;71.47
78490;DHT22;67776;52.012;4.736;2023-07-02T01:36:36;16.17;72.76
78490;DHT22;67776;52.012;4.736;2023-07-02T01:39:02;16.17;70.62
78490;DHT22;67776;52.012;4.736;2023-07-02T01:41:28;16.14;70.30
78490;DHT22;67776;52.012;4.736;2023-07-02T01:43:54;16.13;69.40
78490;DHT22;67776;52.012;4.736;2023-07-02T01:46:19;16.10;69.86
78490;DHT22;67776;52.012;4.736;2023-07-02T01:48:45;16.08;69.37
78490;DHT22;67776;52.012;4.736;2023-07-02T01:51:10;16.07;70.41
78490;DHT22;67776;52.012;4.736;2023-07-02T01:53:35;15.97;69.78
78490;DHT22;67776;52.012;4.736;2023-07-02T01:56:01;15.98;68.94
78490;DHT22;67776;52.012;4.736;2023-07-02T01:58:26;15.94;68.78
78490;DHT22;67776;52.012;4.736;2023-07-02T02:00:52;15.94;68.79
78490;DHT22;67776;52.012;4.736;2023-07-02T02:03:17;15.91;69.61
78490;DHT22;67776;52.012;4.736;2023-07-02T02:05:42;15.86;70.19
78490;DHT22;67776;52.012;4.736;2023-07-02T02:08:08;15.83;69.69
78490;DHT22;67776;52.012;4.736;2023-07-02T02:10:33;15.82;69.15
78490;DHT22;67776;52.012;4.736;2023-07-02T02:12:58;15.83;69.36
78490;DHT22;67776;52.012;4.736;2023-07-02T02:15:24;15.87;68.68
78490;DHT22;67776;52.012;4.736;2023-07-02T02:17:49;15.83;68.63
78490;DHT22;67776;52.012;4.736;2023-07-02T02:20:19;15.80;68.37
78490;DHT22;67776;52.012;4.736;2023-07-02T02:22:44;15.74;68.63
78490;DHT22;67776;52.012;4.736;2023-07-02T02:25:10;15.73;69.42
78490;DHT22;67776;52.012;4.736;2023-07-02T02:27:35;15.69;69.31
78490;DHT22;67776;52.012;4.736;2023-07-02T02:30:01;15.63;70.26
78490;DHT22;67776;52.012;4.736;2023-07-02T02:32:26;15.70;70.10
78490;DHT22;67776;52.012;4.736;2023-07-02T02:34:52;15.59;72.76
78490;DHT22;67776;52.012;4.736;2023-07-02T02:37:18;15.60;70.03
78490;DHT22;67776;52.012;4.736;2023-07-02T02:39:43;15.63;70.44
78490;DHT22;67776;52.012;4.736;2023-07-02T02:42:09;15.59;71.13
78490;DHT22;67776;52.012;4.736;2023-07-02T02:44:34;15.58;70.82
78490;DHT22;67776;52.012;4.736;2023-07-02T02:47:00;15.65;69.82
78490;DHT22;67776;52.012;4.736;2023-07-02T02:49:25;15.67;69.86
78490;DHT22;67776;52.012;4.736;2023-07-02T02:51:50;15.71;69.64
78490;DHT22;67776;52.012;4.736;2023-07-02T02:54:16;15.70;69.93
78490;DHT22;67776;52.012;4.736;2023-07-02T02:56:43;15.70;69.83
78490;DHT22;67776;52.012;4.736;2023-07-02T02:59:09;15.66;69.99
78490;DHT22;67776;52.012;4.736;2023-07-02T03:01:34;15.67;70.64
78490;DHT22;67776;52.012;4.736;2023-07-02T03:03:59;15.62;70.90
78490;DHT22;67776;52.012;4.736;2023-07-02T03:06:25;15.65;70.15
78490;DHT22;67776;52.012;4.736;2023-07-02T03:08:50;15.62;71.04
78490;DHT22;67776;52.012;4.736;2023-07-02T03:11:15;15.60;71.39
78490;DHT22;67776;52.012;4.736;2023-07-02T03:13:41;15.65;70.11
78490;DHT22;67776;52.012;4.736;2023-07-02T03:16:06;15.70;70.10
78490;DHT22;67776;52.012;4.736;2023-07-02T03:18:31;15.69;70.50
78490;DHT22;67776;52.012;4.736;2023-07-02T03:20:57;15.63;70.61
78490;DHT22;67776;52.012;4.736;2023-07-02T03:23:22;15.62;70.48
78490;DHT22;67776;52.012;4.736;2023-07-02T03:25:50;15.55;70.87
78490;DHT22;67776;52.012;4.736;2023-07-02T03:28:16;15.59;70.73
78490;DHT22;67776;52.012;4.736;2023-07-02T03:30:41;15.52;72.71
78490;DHT22;67776;52.012;4.736;2023-07-02T03:33:08;15.53;71.03
78490;DHT22;67776;52.012;4.736;2023-07-02T03:35:35;15.46;71.14
78490;DHT22;67776;52.012;4.736;2023-07-02T03:38:00;15.46;72.16
78490;DHT22;67776;52.012;4.736;2023-07-02T03:40:25;15.41;71.74
78490;DHT22;67776;52.012;4.736;2023-07-02T03:42:50;15.39;72.77
78490;DHT22;67776;52.012;4.736;2023-07-02T03:45:19;15.38;71.39
78490;DHT22;67776;52.012;4.736;2023-07-02T03:47:44;15.36;71.68
78490;DHT22;67776;52.012;4.736;2023-07-02T03:50:09;15.36;71.87
78490;DHT22;67776;52.012;4.736;2023-07-02T03:52:35;15.30;71.79
78490;DHT22;67776;52.012;4.736;2023-07-02T03:55:00;15.31;71.74
78490;DHT22;67776;52.012;4.736;2023-07-02T03:57:26;15.31;72.41
78490;DHT22;67776;52.012;4.736;2023-07-02T03:59:51;15.30;73.04
78490;DHT22;67776;52.012;4.736;2023-07-02T04:02:16;15.30;71.82
78490;DHT22;67776;52.012;4.736;2023-07-02T04:04:42;15.31;72.13
78490;DHT22;67776;52.012;4.736;2023-07-02T04:07:07;15.31;71.62
78490;DHT22;67776;52.012;4.736;2023-07-02T04:09:32;15.34;71.73
78490;DHT22;67776;52.012;4.736;2023-07-02T04:11:59;15.31;71.90
78490;DHT22;67776;52.012;4.736;2023-07-02T04:14:25;15.35;72.14
78490;DHT22;67776;52.012;4.736;2023-07-02T04:16:50;15.34;72.43
78490;DHT22;67776;52.012;4.736;2023-07-02T04:19:16;15.34;71.45
78490;DHT22;67776;52.012;4.736;2023-07-02T04:21:41;15.39;72.39
78490;DHT22;67776;52.012;4.736;2023-07-02T04:24:06;15.42;72.25
78490;DHT22;67776;52.012;4.736;2023-07-02T04:26:32;15.41;73.62
78490;DHT22;67776;52.012;4.736;2023-07-02T04:28:57;15.49;72.61
78490;DHT22;67776;52.012;4.736;2023-07-02T04:31:24;15.56;71.56
78490;DHT22;67776;52.012;4.736;2023-07-02T04:33:49;15.60;71.25
78490;DHT22;67776;52.012;4.736;2023-07-02T04:36:15;15.59;70.84
78490;DHT22;67776;52.012;4.736;2023-07-02T04:38:40;15.62;70.80
78490;DHT22;67776;52.012;4.736;2023-07-02T04:41:05;15.60;72.44
78490;DHT22;67776;52.012;4.736;2023-07-02T04:43:31;15.62;71.13
78490;DHT22;67776;52.012;4.736;2023-07-02T04:45:58;15.66;70.24
78490;DHT22;67776;52.012;4.736;2023-07-02T04:48:23;15.63;71.61
78490;DHT22;67776;52.012;4.736;2023-07-02T04:50:49;15.76;70.39
78490;DHT22;67776;52.012;4.736;2023-07-02T04:53:14;15.62;73.00
78490;DHT22;67776;52.012;4.736;2023-07-02T04:55:40;15.76;70.68
78490;DHT22;67776;52.012;4.736;2023-07-02T04:58:06;15.77;71.83
78490;DHT22;67776;52.012;4.736;2023-07-02T05:00:31;15.86;69.80
78490;DHT22;67776;52.012;4.736;2023-07-02T05:02:56;15.93;70.11
78490;DHT22;67776;52.012;4.736;2023-07-02T05:05:22;15.91;70.15
78490;DHT22;67776;52.012;4.736;2023-07-02T05:07:47;15.89;71.40
78490;DHT22;67776;52.012;4.736;2023-07-02T05:10:12;16.00;69.18
78490;DHT22;67776;52.012;4.736;2023-07-02T05:12:38;16.01;69.80
78490;DHT22;67776;52.012;4.736;2023-07-02T05:15:04;16.10;69.43
78490;DHT22;67776;52.012;4.736;2023-07-02T05:17:29;16.08;70.04
78490;DHT22;67776;52.012;4.736;2023-07-02T05:19:54;16.08;70.01
78490;DHT22;67776;52.012;4.736;2023-07-02T05:22:20;16.06;69.46
78490;DHT22;67776;52.012;4.736;2023-07-02T05:24:45;16.03;70.73
78490;DHT22;67776;52.012;4.736;2023-07-02T05:27:11;16.07;70.33
78490;DHT22;67776;52.012;4.736;2023-07-02T05:29:37;16.08;70.18
78490;DHT22;67776;52.012;4.736;2023-07-02T05:32:02;16.15;70.42
78490;DHT22;67776;52.012;4.736;2023-07-02T05:34:27;16.17;72.14
78490;DHT22;67776;52.012;4.736;2023-07-02T05:36:53;16.17;69.80
78490;DHT22;67776;52.012;4.736;2023-07-02T05:39:18;16.22;70.52
78490;DHT22;67776;52.012;4.736;2023-07-02T05:41:43;16.26;70.65
78490;DHT22;67776;52.012;4.736;2023-07-02T05:44:09;16.41;70.26
78490;DHT22;67776;52.012;4.736;2023-07-02T05:46:34;16.42;70.29
78490;DHT22;67776;52.012;4.736;2023-07-02T05:48:59;16.53;70.87
78490;DHT22;67776;52.012;4.736;2023-07-02T05:51:25;16.58;70.56
78490;DHT22;67776;52.012;4.736;2023-07-02T05:53:51;16.66;69.56
78490;DHT22;67776;52.012;4.736;2023-07-02T05:56:17;16.51;69.58
78490;DHT22;67776;52.012;4.736;2023-07-02T05:58:43;16.62;68.72
78490;DHT22;67776;52.012;4.736;2023-07-02T06:01:08;16.68;68.61
78490;DHT22;67776;52.012;4.736;2023-07-02T06:03:34;16.58;68.80
78490;DHT22;67776;52.012;4.736;2023-07-02T06:05:59;16.69;67.66
78490;DHT22;67776;52.012;4.736;2023-07-02T06:08:24;16.69;67.47
78490;DHT22;67776;52.012;4.736;2023-07-02T06:10:50;16.69;67.89
78490;DHT22;67776;52.012;4.736;2023-07-02T06:13:16;16.65;68.62
78490;DHT22;67776;52.012;4.736;2023-07-02T06:15:41;16.47;69.58
78490;DHT22;67776;52.012;4.736;2023-07-02T06:18:06;16.51;69.27
78490;DHT22;67776;52.012;4.736;2023-07-02T06:20:32;16.55;69.05
78490;DHT22;67776;52.012;4.736;2023-07-02T06:22:57;16.41;69.34
78490;DHT22;67776;52.012;4.736;2023-07-02T06:25:23;16.35;70.47
78490;DHT22;67776;52.012;4.736;2023-07-02T06:27:48;16.44;68.82
78490;DHT22;67776;52.012;4.736;2023-07-02T06:30:13;16.51;69.02
78490;DHT22;67776;52.012;4.736;2023-07-02T06:32:39;16.58;69.12
78490;DHT22;67776;52.012;4.736;2023-07-02T06:35:04;16.60;69.30
78490;DHT22;67776;52.012;4.736;2023-07-02T06:37:31;16.62;68.65
78490;DHT22;67776;52.012;4.736;2023-07-02T06:39:57;16.59;68.18
78490;DHT22;67776;52.012;4.736;2023-07-02T06:42:22;16.66;68.17
78490;DHT22;67776;52.012;4.736;2023-07-02T06:44:48;16.69;65.29
78490;DHT22;67776;52.012;4.736;2023-07-02T06:47:13;16.80;65.80
78490;DHT22;67776;52.012;4.736;2023-07-02T06:49:38;16.83;67.48
78490;DHT22;67776;52.012;4.736;2023-07-02T06:52:04;16.86;67.05
78490;DHT22;67776;52.012;4.736;2023-07-02T06:54:29;16.81;65.85
78490;DHT22;67776;52.012;4.736;2023-07-02T06:56:55;16.80;65.21
78490;DHT22;67776;52.012;4.736;2023-07-02T06:59:21;16.90;66.87
78490;DHT22;67776;52.012;4.736;2023-07-02T07:01:47;16.91;63.80
78490;DHT22;67776;52.012;4.736;2023-07-02T07:04:12;16.97;64.30
78490;DHT22;67776;52.012;4.736;2023-07-02T07:06:37;16.97;63.83
78490;DHT22;67776;52.012;4.736;2023-07-02T07:09:03;17.08;65.64
78490;DHT22;67776;52.012;4.736;2023-07-02T07:11:28;17.23;61.99
78490;DHT22;67776;52.012;4.736;2023-07-02T07:13:54;17.28;61.73
78490;DHT22;67776;52.012;4.736;2023-07-02T07:16:19;17.25;63.75
78490;DHT22;67776;52.012;4.736;2023-07-02T07:18:45;17.17;62.37
78490;DHT22;67776;52.012;4.736;2023-07-02T07:21:10;17.21;62.44
78490;DHT22;67776;52.012;4.736;2023-07-02T07:23:35;17.06;62.84
78490;DHT22;67776;52.012;4.736;2023-07-02T07:26:01;17.06;62.60
78490;DHT22;67776;52.012;4.736;2023-07-02T07:28:26;17.17;64.28
78490;DHT22;67776;52.012;4.736;2023-07-02T07:30:52;17.25;62.68
78490;DHT22;67776;52.012;4.736;2023-07-02T07:33:17;17.17;65.00
78490;DHT22;67776;52.012;4.736;2023-07-02T07:35:42;17.27;67.28
78490;DHT22;67776;52.012;4.736;2023-07-02T07:38:08;17.25;62.13
78490;DHT22;67776;52.012;4.736;2023-07-02T07:40:33;17.34;62.40
78490;DHT22;67776;52.012;4.736;2023-07-02T07:42:59;17.39;62.94
78490;DHT22;67776;52.012;4.736;2023-07-02T07:45:24;17.43;61.53
78490;DHT22;67776;52.012;4.736;2023-07-02T07:47:50;17.35;59.90
78490;DHT22;67776;52.012;4.736;2023-07-02T07:50:15;17.46;60.38
78490;DHT22;67776;52.012;4.736;2023-07-02T07:52:42;17.53;59.96
78490;DHT22;67776;52.012;4.736;2023-07-02T07:55:08;17.56;59.10
78490;DHT22;67776;52.012;4.736;2023-07-02T07:57:34;17.45;59.45
78490;DHT22;67776;52.012;4.736;2023-07-02T08:00:00;17.53;58.54
78490;DHT22;67776;52.012;4.736;2023-07-02T08:02:25;17.59;59.07
78490;DHT22;67776;52.012;4.736;2023-07-02T08:04:51;17.80;59.86
78490;DHT22;67776;52.012;4.736;2023-07-02T08:07:19;18.06;59.30
78490;DHT22;67776;52.012;4.736;2023-07-02T08:09:44;18.11;57.35
78490;DHT22;67776;52.012;4.736;2023-07-02T08:12:10;17.97;57.93
78490;DHT22;67776;52.012;4.736;2023-07-02T08:14:35;17.62;58.71
78490;DHT22;67776;52.012;4.736;2023-07-02T08:17:01;17.75;58.97
78490;DHT22;67776;52.012;4.736;2023-07-02T08:19:26;17.73;57.89
78490;DHT22;67776;52.012;4.736;2023-07-02T08:21:52;17.97;57.28
78490;DHT22;67776;52.012;4.736;2023-07-02T08:24:17;18.07;57.68
78490;DHT22;67776;52.012;4.736;2023-07-02T08:26:42;18.14;57.46
78490;DHT22;67776;52.012;4.736;2023-07-02T08:29:09;18.37;55.30
78490;DHT22;67776;52.012;4.736;2023-07-02T08:31:35;18.49;54.36
78490;DHT22;67776;52.012;4.736;2023-07-02T08:34:00;18.56;54.23
78490;DHT22;67776;52.012;4.736;2023-07-02T08:36:25;18.75;54.57
78490;DHT22;67776;52.012;4.736;2023-07-02T08:38:51;18.90;53.36
78490;DHT22;67776;52.012;4.736;2023-07-02T08:41:16;19.13;52.36
78490;DHT22;67776;52.012;4.736;2023-07-02T08:43:42;19.28;51.07
78490;DHT22;67776;52.012;4.736;2023-07-02T08:46:08;19.16;53.17
78490;DHT22;67776;52.012;4.736;2023-07-02T08:48:35;19.73;53.28
78490;DHT22;67776;52.012;4.736;2023-07-02T08:51:02;19.20;58.67
78490;DHT22;67776;52.012;4.736;2023-07-02T08:53:29;19.20;54.08
78490;DHT22;67776;52.012;4.736;2023-07-02T08:56:02;19.86;53.80
78490;DHT22;67776;52.012;4.736;2023-07-02T08:58:27;19.99;53.72
78490;DHT22;67776;52.012;4.736;2023-07-02T09:01:10;20.48;50.64
78490;DHT22;67776;52.012;4.736;2023-07-02T09:03:36;20.28;51.57
78490;DHT22;67776;52.012;4.736;2023-07-02T09:06:03;20.67;50.97
78490;DHT22;67776;52.012;4.736;2023-07-02T09:08:28;21.03;49.66
78490;DHT22;67776;52.012;4.736;2023-07-02T09:11:04;20.45;49.32
78490;DHT22;67776;52.012;4.736;2023-07-02T09:13:30;20.18;52.70
78490;DHT22;67776;52.012;4.736;2023-07-02T09:15:55;20.76;50.36
78490;DHT22;67776;52.012;4.736;2023-07-02T09:18:22;20.65;49.84
78490;DHT22;67776;52.012;4.736;2023-07-02T09:20:54;20.99;47.78
78490;DHT22;67776;52.012;4.736;2023-07-02T09:23:20;20.92;48.51
78490;DHT22;67776;52.012;4.736;2023-07-02T09:25:45;21.54;49.63
78490;DHT22;67776;52.012;4.736;2023-07-02T09:28:16;21.00;48.31
78490;DHT22;67776;52.012;4.736;2023-07-02T09:30:53;20.80;47.81
78490;DHT22;67776;52.012;4.736;2023-07-02T09:33:18;21.38;47.21
78490;DHT22;67776;52.012;4.736;2023-07-02T09:35:44;21.00;47.46
78490;DHT22;67776;52.012;4.736;2023-07-02T09:38:11;21.51;44.63
78490;DHT22;67776;52.012;4.736;2023-07-02T09:40:44;21.43;46.67
78490;DHT22;67776;52.012;4.736;2023-07-02T09:43:11;20.82;46.30
78490;DHT22;67776;52.012;4.736;2023-07-02T09:45:36;21.82;44.33
78490;DHT22;67776;52.012;4.736;2023-07-02T09:48:02;21.59;46.46
78490;DHT22;67776;52.012;4.736;2023-07-02T09:50:29;20.80;46.04
78490;DHT22;67776;52.012;4.736;2023-07-02T09:52:55;21.27;45.81
78490;DHT22;67776;52.012;4.736;2023-07-02T09:55:21;20.97;44.02
78490;DHT22;67776;52.012;4.736;2023-07-02T09:57:47;21.28;44.52
78490;DHT22;67776;52.012;4.736;2023-07-02T10:00:13;21.03;43.61
78490;DHT22;67776;52.012;4.736;2023-07-02T10:02:39;20.97;46.79
78490;DHT22;67776;52.012;4.736;2023-07-02T10:05:05;20.75;46.17
78490;DHT22;67776;52.012;4.736;2023-07-02T10:07:32;20.28;48.33
78490;DHT22;67776;52.012;4.736;2023-07-02T10:09:58;21.48;45.21
78490;DHT22;67776;52.012;4.736;2023-07-02T10:12:25;21.93;42.71
78490;DHT22;67776;52.012;4.736;2023-07-02T10:14:53;22.48;41.77
78490;DHT22;67776;52.012;4.736;2023-07-02T10:17:32;23.19;41.70
78490;DHT22;67776;52.012;4.736;2023-07-02T10:19:59;22.27;42.72
78490;DHT22;67776;52.012;4.736;2023-07-02T10:22:26;21.88;46.01
78490;DHT22;67776;52.012;4.736;2023-07-02T10:24:55;21.69;41.42
78490;DHT22;67776;52.012;4.736;2023-07-02T10:27:38;21.55;45.44
78490;DHT22;67776;52.012;4.736;2023-07-02T10:30:09;21.75;42.19
78490;DHT22;67776;52.012;4.736;2023-07-02T10:32:35;22.33;41.75
78490;DHT22;67776;52.012;4.736;2023-07-02T10:35:16;22.32;43.16
78490;DHT22;67776;52.012;4.736;2023-07-02T10:37:43;22.43;41.01
78490;DHT22;67776;52.012;4.736;2023-07-02T10:40:09;23.03;41.09
78490;DHT22;67776;52.012;4.736;2023-07-02T10:45:12;21.27;40.92
78490;DHT22;67776;52.012;4.736;2023-07-02T10:47:40;22.09;41.81
78490;DHT22;67776;52.012;4.736;2023-07-02T10:52:41;22.50;40.80
78490;DHT22;67776;52.012;4.736;2023-07-02T10:55:06;23.12;37.91
78490;DHT22;67776;52.012;4.736;2023-07-02T10:57:32;23.85;38.69
78490;DHT22;67776;52.012;4.736;2023-07-02T11:00:05;23.58;39.71
78490;DHT22;67776;52.012;4.736;2023-07-02T11:02:39;24.37;38.31
78490;DHT22;67776;52.012;4.736;2023-07-02T11:05:05;23.02;41.32
78490;DHT22;67776;52.012;4.736;2023-07-02T11:07:32;22.69;44.57
78490;DHT22;67776;52.012;4.736;2023-07-02T11:09:57;22.14;39.86
78490;DHT22;67776;52.012;4.736;2023-07-02T11:12:30;22.85;37.71
78490;DHT22;67776;52.012;4.736;2023-07-02T11:14:55;22.16;40.46
78490;DHT22;67776;52.012;4.736;2023-07-02T11:17:25;21.51;41.11
78490;DHT22;67776;52.012;4.736;2023-07-02T11:19:51;21.92;41.76
78490;DHT22;67776;52.012;4.736;2023-07-02T11:22:17;21.74;42.14
78490;DHT22;67776;52.012;4.736;2023-07-02T11:24:42;22.16;41.40
78490;DHT22;67776;52.012;4.736;2023-07-02T11:27:07;21.31;46.92
78490;DHT22;67776;52.012;4.736;2023-07-02T11:29:34;22.13;41.36
78490;DHT22;67776;52.012;4.736;2023-07-02T11:32:09;22.03;45.14
78490;DHT22;67776;52.012;4.736;2023-07-02T11:34:35;22.88;39.68
78490;DHT22;67776;52.012;4.736;2023-07-02T11:37:01;23.44;39.07
78490;DHT22;67776;52.012;4.736;2023-07-02T11:39:27;23.53;39.24
78490;DHT22;67776;52.012;4.736;2023-07-02T11:41:52;24.12;37.33
78490;DHT22;67776;52.012;4.736;2023-07-02T11:44:17;24.01;34.02
78490;DHT22;67776;52.012;4.736;2023-07-02T11:46:43;23.00;37.90
78490;DHT22;67776;52.012;4.736;2023-07-02T11:49:08;23.17;38.57
78490;DHT22;67776;52.012;4.736;2023-07-02T11:51:38;23.24;39.21
78490;DHT22;67776;52.012;4.736;2023-07-02T11:54:04;23.92;38.90
78490;DHT22;67776;52.012;4.736;2023-07-02T11:56:30;24.15;36.05
78490;DHT22;67776;52.012;4.736;2023-07-02T11:58:55;23.62;37.14
78490;DHT22;67776;52.012;4.736;2023-07-02T12:01:21;22.67;37.40
78490;DHT22;67776;52.012;4.736;2023-07-02T12:03:46;22.60;39.28
78490;DHT22;67776;52.012;4.736;2023-07-02T12:06:11;24.17;37.19
78490;DHT22;67776;52.012;4.736;2023-07-02T12:08:37;24.64;35.90
78490;DHT22;67776;52.012;4.736;2023-07-02T12:11:02;24.19;35.89
78490;DHT22;67776;52.012;4.736;2023-07-02T12:13:27;24.32;36.19
78490;DHT22;67776;52.012;4.736;2023-07-02T12:15:53;24.57;36.54
78490;DHT22;67776;52.012;4.736;2023-07-02T12:18:18;24.04;38.55
78490;DHT22;67776;52.012;4.736;2023-07-02T12:20:45;24.94;36.44
78490;DHT22;67776;52.012;4.736;2023-07-02T12:23:10;25.33;35.11
78490;DHT22;67776;52.012;4.736;2023-07-02T12:25:37;25.64;34.98
78490;DHT22;67776;52.012;4.736;2023-07-02T12:28:03;25.71;33.01
78490;DHT22;67776;52.012;4.736;2023-07-02T12:30:29;25.22;34.22
78490;DHT22;67776;52.012;4.736;2023-07-02T12:32:54;26.26;33.76
78490;DHT22;67776;52.012;4.736;2023-07-02T12:35:20;25.15;35.67
78490;DHT22;67776;52.012;4.736;2023-07-02T12:37:47;24.01;36.00
78490;DHT22;67776;52.012;4.736;2023-07-02T12:40:13;24.15;36.68
78490;DHT22;67776;52.012;4.736;2023-07-02T12:42:44;24.10;35.65
78490;DHT22;67776;52.012;4.736;2023-07-02T12:45:11;24.78;35.59
78490;DHT22;67776;52.012;4.736;2023-07-02T12:47:37;25.02;35.73
78490;DHT22;67776;52.012;4.736;2023-07-02T12:50:03;24.22;35.40
78490;DHT22;67776;52.012;4.736;2023-07-02T12:52:29;25.59;35.44
78490;DHT22;67776;52.012;4.736;2023-07-02T12:54:54;25.29;35.84
78490;DHT22;67776;52.012;4.736;2023-07-02T12:57:20;24.41;35.90
78490;DHT22;67776;52.012;4.736;2023-07-02T12:59:45;25.25;35.72
78490;DHT22;67776;52.012;4.736;2023-07-02T13:02:10;25.60;34.20
78490;DHT22;67776;52.012;4.736;2023-07-02T13:04:36;25.67;33.65
78490;DHT22;67776;52.012;4.736;2023-07-02T13:07:02;25.51;36.51
78490;DHT22;67776;52.012;4.736;2023-07-02T13:09:27;24.99;34.89
78490;DHT22;67776;52.012;4.736;2023-07-02T13:11:52;24.64;36.92
78490;DHT22;67776;52.012;4.736;2023-07-02T13:14:18;24.94;34.58
78490;DHT22;67776;52.012;4.736;2023-07-02T13:16:43;25.23;36.39
78490;DHT22;67776;52.012;4.736;2023-07-02T13:19:08;25.27;34.47
78490;DHT22;67776;52.012;4.736;2023-07-02T13:21:34;25.69;34.06
78490;DHT22;67776;52.012;4.736;2023-07-02T13:23:59;25.16;35.02
78490;DHT22;67776;52.012;4.736;2023-07-02T13:26:25;24.80;37.71
78490;DHT22;67776;52.012;4.736;2023-07-02T13:28:50;25.69;34.68
78490;DHT22;67776;52.012;4.736;2023-07-02T13:31:15;24.59;35.94
78490;DHT22;67776;52.012;4.736;2023-07-02T13:33:42;23.88;37.38
78490;DHT22;67776;52.012;4.736;2023-07-02T13:36:08;23.88;39.01
78490;DHT22;67776;52.012;4.736;2023-07-02T13:38:33;24.17;38.33
78490;DHT22;67776;52.012;4.736;2023-07-02T13:40:59;25.33;35.96
78490;DHT22;67776;52.012;4.736;2023-07-02T13:43:24;25.66;33.27
78490;DHT22;67776;52.012;4.736;2023-07-02T13:45:50;25.64;32.94
78490;DHT22;67776;52.012;4.736;2023-07-02T13:48:15;25.57;33.64
78490;DHT22;67776;52.012;4.736;2023-07-02T13:50:41;25.05;34.62
78490;DHT22;67776;52.012;4.736;2023-07-02T13:53:07;24.19;36.58
78490;DHT22;67776;52.012;4.736;2023-07-02T13:55:33;25.61;33.97
78490;DHT22;67776;52.012;4.736;2023-07-02T13:57:58;24.70;34.59
78490;DHT22;67776;52.012;4.736;2023-07-02T14:00:25;23.19;38.14
78490;DHT22;67776;52.012;4.736;2023-07-02T14:02:50;23.57;37.72
78490;DHT22;67776;52.012;4.736;2023-07-02T14:05:16;23.22;39.49
78490;DHT22;67776;52.012;4.736;2023-07-02T14:07:41;23.94;38.24
78490;DHT22;67776;52.012;4.736;2023-07-02T14:10:07;23.15;37.99
78490;DHT22;67776;52.012;4.736;2023-07-02T14:12:32;23.34;37.30
78490;DHT22;67776;52.012;4.736;2023-07-02T14:14:58;23.50;37.53
78490;DHT22;67776;52.012;4.736;2023-07-02T14:17:23;23.53;39.98
78490;DHT22;67776;52.012;4.736;2023-07-02T14:19:48;25.16;38.12
78490;DHT22;67776;52.012;4.736;2023-07-02T14:22:14;25.85;34.82
78490;DHT22;67776;52.012;4.736;2023-07-02T14:24:40;25.82;35.26
78490;DHT22;67776;52.012;4.736;2023-07-02T14:27:05;23.74;38.59
78490;DHT22;67776;52.012;4.736;2023-07-02T14:29:31;22.52;40.68
78490;DHT22;67776;52.012;4.736;2023-07-02T14:31:56;22.82;43.87
78490;DHT22;67776;52.012;4.736;2023-07-02T14:34:22;23.42;40.29
78490;DHT22;67776;52.012;4.736;2023-07-02T14:36:47;23.79;39.67
78490;DHT22;67776;52.012;4.736;2023-07-02T14:39:12;23.94;40.15
78490;DHT22;67776;52.012;4.736;2023-07-02T14:41:40;22.89;40.27
78490;DHT22;67776;52.012;4.736;2023-07-02T14:44:06;24.53;37.77
78490;DHT22;67776;52.012;4.736;2023-07-02T14:46:31;24.89;36.67
78490;DHT22;67776;52.012;4.736;2023-07-02T14:48:57;24.67;36.75
78490;DHT22;67776;52.012;4.736;2023-07-02T14:51:23;24.34;40.15
78490;DHT22;67776;52.012;4.736;2023-07-02T14:53:49;25.16;36.60
78490;DHT22;67776;52.012;4.736;2023-07-02T14:56:15;25.78;37.81
78490;DHT22;67776;52.012;4.736;2023-07-02T14:58:40;24.06;40.15
78490;DHT22;67776;52.012;4.736;2023-07-02T15:01:05;25.18;37.56
78490;DHT22;67776;52.012;4.736;2023-07-02T15:03:31;25.18;38.78
78490;DHT22;67776;52.012;4.736;2023-07-02T15:06:10;25.61;37.40
78490;DHT22;67776;52.012;4.736;2023-07-02T15:08:37;24.08;39.95
78490;DHT22;67776;52.012;4.736;2023-07-02T15:11:02;25.12;37.91
78490;DHT22;67776;52.012;4.736;2023-07-02T15:13:28;24.51;38.11
78490;DHT22;67776;52.012;4.736;2023-07-02T15:15:53;24.19;39.62
78490;DHT22;67776;52.012;4.736;2023-07-02T15:18:18;23.99;39.91
78490;DHT22;67776;52.012;4.736;2023-07-02T15:20:46;24.46;39.12
78490;DHT22;67776;52.012;4.736;2023-07-02T15:23:12;25.50;37.91
78490;DHT22;67776;52.012;4.736;2023-07-02T15:25:38;24.49;38.60
78490;DHT22;67776;52.012;4.736;2023-07-02T15:28:03;24.63;39.98
78490;DHT22;67776;52.012;4.736;2023-07-02T15:30:29;23.28;42.40